sensor_id;sensor_type;location;lat;lon;timestamp;P1;durP1;ratioP1;P2;durP2;ratioP2
7047;SDS011;3565;53.254;10.352;2022-09-06T00:00:25;8.43;;;3.87;;
7047;SDS011;3565;53.254;10.352;2022-09-06T00:02:54;4.10;;;3.70;;
7047;SDS011;3565;53.254;10.352;2022-09-06T00:05:26;3.70;;;3.40;;
7047;SDS011;3565;53.254;10.352;2022-09-06T00:07:57;5.77;;;3.93;;
7047;SDS011;3565;53.254;10.352;2022-09-06T00:10:28;3.63;;;3.27;;
7047;SDS011;3565;53.254;10.352;2022-09-06T00:12:59;4.37;;;3.67;;
7047;SDS011;3565;53.254;10.352;2022-09-06T00:15:30;5.60;;;3.47;;
7047;SDS011;3565;53.254;10.352;2022-09-06T00:18:00;6.33;;;3.80;;
7047;SDS011;3565;53.254;10.352;2022-09-06T00:20:31;4.03;;;3.63;;
7047;SDS011;3565;53.254;10.352;2022-09-06T00:23:02;4.57;;;3.70;;
7047;SDS011;3565;53.254;10.352;2022-09-06T00:25:32;7.17;;;3.70;;
7047;SDS011;3565;53.254;10.352;2022-09-06T00:28:03;3.80;;;3.10;;
7047;SDS011;3565;53.254;10.352;2022-09-06T00:30:32;4.97;;;3.87;;
7047;SDS011;3565;53.254;10.352;2022-09-06T00:33:02;6.70;;;3.60;;
7047;SDS011;3565;53.254;10.352;2022-09-06T00:35:31;4.03;;;3.57;;
7047;SDS011;3565;53.254;10.352;2022-09-06T00:38:00;3.97;;;3.57;;
7047;SDS011;3565;53.254;10.352;2022-09-06T00:40:31;5.57;;;3.70;;
7047;SDS011;3565;53.254;10.352;2022-09-06T00:43:01;4.90;;;3.47;;
7047;SDS011;3565;53.254;10.352;2022-09-06T00:45:31;4.77;;;3.73;;
7047;SDS011;3565;53.254;10.352;2022-09-06T00:48:00;5.30;;;3.80;;
7047;SDS011;3565;53.254;10.352;2022-09-06T00:50:32;5.10;;;3.73;;
7047;SDS011;3565;53.254;10.352;2022-09-06T00:53:01;5.77;;;3.70;;
7047;SDS011;3565;53.254;10.352;2022-09-06T00:55:32;3.67;;;3.37;;
7047;SDS011;3565;53.254;10.352;2022-09-06T00:58:01;4.07;;;3.60;;
7047;SDS011;3565;53.254;10.352;2022-09-06T01:00:30;6.27;;;3.93;;
7047;SDS011;3565;53.254;10.352;2022-09-06T01:03:00;3.90;;;3.50;;
7047;SDS011;3565;53.254;10.352;2022-09-06T01:05:33;3.80;;;3.50;;
7047;SDS011;3565;53.254;10.352;2022-09-06T01:08:04;7.73;;;3.50;;
7047;SDS011;3565;53.254;10.352;2022-09-06T01:10:41;4.87;;;3.90;;
7047;SDS011;3565;53.254;10.352;2022-09-06T01:13:32;7.53;;;3.93;;
7047;SDS011;3565;53.254;10.352;2022-09-06T01:16:06;4.57;;;3.40;;
7047;SDS011;3565;53.254;10.352;2022-09-06T01:18:43;5.70;;;3.73;;
7047;SDS011;3565;53.254;10.352;2022-09-06T01:21:18;5.30;;;3.80;;
7047;SDS011;3565;53.254;10.352;2022-09-06T01:24:10;4.23;;;3.53;;
7047;SDS011;3565;53.254;10.352;2022-09-06T01:29:58;4.30;;;3.80;;
7047;SDS011;3565;53.254;10.352;2022-09-06T01:32:34;5.60;;;3.50;;
7047;SDS011;3565;53.254;10.352;2022-09-06T01:35:05;6.13;;;3.70;;
7047;SDS011;3565;53.254;10.352;2022-09-06T01:37:38;5.27;;;4.10;;
7047;SDS011;3565;53.254;10.352;2022-09-06T01:40:08;5.47;;;3.47;;
7047;SDS011;3565;53.254;10.352;2022-09-06T01:42:38;4.40;;;3.70;;
7047;SDS011;3565;53.254;10.352;2022-09-06T01:45:11;5.03;;;4.00;;
7047;SDS011;3565;53.254;10.352;2022-09-06T01:47:45;5.30;;;3.40;;
7047;SDS011;3565;53.254;10.352;2022-09-06T01:50:22;6.47;;;4.00;;
7047;SDS011;3565;53.254;10.352;2022-09-06T01:53:07;4.67;;;3.80;;
7047;SDS011;3565;53.254;10.352;2022-09-06T01:55:41;6.83;;;3.60;;
7047;SDS011;3565;53.254;10.352;2022-09-06T01:58:21;6.90;;;3.90;;
7047;SDS011;3565;53.254;10.352;2022-09-06T02:00:59;5.30;;;3.77;;
7047;SDS011;3565;53.254;10.352;2022-09-06T02:03:31;4.43;;;3.70;;
7047;SDS011;3565;53.254;10.352;2022-09-06T02:06:04;4.33;;;3.63;;
7047;SDS011;3565;53.254;10.352;2022-09-06T02:11:32;5.83;;;3.80;;
7047;SDS011;3565;53.254;10.352;2022-09-06T02:14:05;9.30;;;3.70;;
7047;SDS011;3565;53.254;10.352;2022-09-06T02:16:37;7.30;;;3.60;;
7047;SDS011;3565;53.254;10.352;2022-09-06T02:19:11;4.80;;;3.50;;
7047;SDS011;3565;53.254;10.352;2022-09-06T02:21:42;4.13;;;3.50;;
7047;SDS011;3565;53.254;10.352;2022-09-06T02:24:14;5.73;;;3.90;;
7047;SDS011;3565;53.254;10.352;2022-09-06T02:26:46;5.90;;;3.50;;
7047;SDS011;3565;53.254;10.352;2022-09-06T02:29:15;5.43;;;3.73;;
7047;SDS011;3565;53.254;10.352;2022-09-06T02:31:46;3.80;;;3.40;;
7047;SDS011;3565;53.254;10.352;2022-09-06T02:34:17;4.00;;;3.60;;
7047;SDS011;3565;53.254;10.352;2022-09-06T02:36:47;4.13;;;3.50;;
7047;SDS011;3565;53.254;10.352;2022-09-06T02:39:17;5.03;;;3.83;;
7047;SDS011;3565;53.254;10.352;2022-09-06T02:41:46;5.13;;;3.97;;
7047;SDS011;3565;53.254;10.352;2022-09-06T02:44:16;4.80;;;3.63;;
7047;SDS011;3565;53.254;10.352;2022-09-06T02:46:45;4.23;;;3.67;;
7047;SDS011;3565;53.254;10.352;2022-09-06T02:49:15;4.90;;;3.50;;
7047;SDS011;3565;53.254;10.352;2022-09-06T02:51:44;4.13;;;3.33;;
7047;SDS011;3565;53.254;10.352;2022-09-06T02:54:13;4.93;;;3.10;;
7047;SDS011;3565;53.254;10.352;2022-09-06T02:56:42;3.47;;;3.17;;
7047;SDS011;3565;53.254;10.352;2022-09-06T02:59:26;7.60;;;3.10;;
7047;SDS011;3565;53.254;10.352;2022-09-06T03:01:55;5.93;;;3.57;;
7047;SDS011;3565;53.254;10.352;2022-09-06T03:04:24;7.17;;;3.23;;
7047;SDS011;3565;53.254;10.352;2022-09-06T03:06:53;4.47;;;3.57;;
7047;SDS011;3565;53.254;10.352;2022-09-06T03:09:23;6.10;;;3.60;;
7047;SDS011;3565;53.254;10.352;2022-09-06T03:11:53;4.53;;;3.30;;
7047;SDS011;3565;53.254;10.352;2022-09-06T03:14:23;6.73;;;3.77;;
7047;SDS011;3565;53.254;10.352;2022-09-06T03:16:52;4.10;;;3.20;;
7047;SDS011;3565;53.254;10.352;2022-09-06T03:19:21;3.67;;;2.90;;
7047;SDS011;3565;53.254;10.352;2022-09-06T03:21:50;3.50;;;3.20;;
7047;SDS011;3565;53.254;10.352;2022-09-06T03:24:20;3.70;;;3.30;;
7047;SDS011;3565;53.254;10.352;2022-09-06T03:26:51;6.23;;;3.93;;
7047;SDS011;3565;53.254;10.352;2022-09-06T03:29:22;4.03;;;2.97;;
7047;SDS011;3565;53.254;10.352;2022-09-06T03:31:51;4.27;;;2.90;;
7047;SDS011;3565;53.254;10.352;2022-09-06T03:34:20;4.10;;;3.00;;
7047;SDS011;3565;53.254;10.352;2022-09-06T03:36:49;2.90;;;2.57;;
7047;SDS011;3565;53.254;10.352;2022-09-06T03:39:18;3.57;;;3.00;;
7047;SDS011;3565;53.254;10.352;2022-09-06T03:41:47;3.87;;;2.83;;
7047;SDS011;3565;53.254;10.352;2022-09-06T03:44:17;4.43;;;2.50;;
7047;SDS011;3565;53.254;10.352;2022-09-06T03:46:46;4.43;;;3.00;;
7047;SDS011;3565;53.254;10.352;2022-09-06T03:49:16;4.40;;;2.63;;
7047;SDS011;3565;53.254;10.352;2022-09-06T03:51:45;3.43;;;2.80;;
7047;SDS011;3565;53.254;10.352;2022-09-06T03:54:14;3.47;;;2.80;;
7047;SDS011;3565;53.254;10.352;2022-09-06T03:56:43;2.83;;;2.60;;
7047;SDS011;3565;53.254;10.352;2022-09-06T03:59:13;3.63;;;2.83;;
7047;SDS011;3565;53.254;10.352;2022-09-06T04:01:42;5.53;;;2.97;;
7047;SDS011;3565;53.254;10.352;2022-09-06T04:04:11;4.13;;;2.60;;
7047;SDS011;3565;53.254;10.352;2022-09-06T04:06:40;4.37;;;2.60;;
7047;SDS011;3565;53.254;10.352;2022-09-06T04:09:09;3.60;;;2.33;;
7047;SDS011;3565;53.254;10.352;2022-09-06T04:11:38;6.70;;;2.50;;
7047;SDS011;3565;53.254;10.352;2022-09-06T04:14:08;2.70;;;2.50;;
7047;SDS011;3565;53.254;10.352;2022-09-06T04:16:37;3.10;;;2.33;;
7047;SDS011;3565;53.254;10.352;2022-09-06T04:19:06;3.63;;;2.60;;
7047;SDS011;3565;53.254;10.352;2022-09-06T04:21:35;3.73;;;2.27;;
7047;SDS011;3565;53.254;10.352;2022-09-06T04:24:04;2.90;;;2.17;;
7047;SDS011;3565;53.254;10.352;2022-09-06T04:26:33;5.20;;;2.30;;
7047;SDS011;3565;53.254;10.352;2022-09-06T04:29:02;2.80;;;2.13;;
7047;SDS011;3565;53.254;10.352;2022-09-06T04:31:32;3.17;;;2.30;;
7047;SDS011;3565;53.254;10.352;2022-09-06T04:34:01;2.60;;;2.37;;
7047;SDS011;3565;53.254;10.352;2022-09-06T04:36:30;2.93;;;2.40;;
7047;SDS011;3565;53.254;10.352;2022-09-06T04:38:58;3.03;;;2.20;;
7047;SDS011;3565;53.254;10.352;2022-09-06T04:41:27;4.33;;;2.23;;
7047;SDS011;3565;53.254;10.352;2022-09-06T04:43:54;4.23;;;2.30;;
7047;SDS011;3565;53.254;10.352;2022-09-06T04:46:27;2.53;;;2.00;;
7047;SDS011;3565;53.254;10.352;2022-09-06T04:48:56;5.27;;;2.03;;
7047;SDS011;3565;53.254;10.352;2022-09-06T04:51:27;2.20;;;2.00;;
7047;SDS011;3565;53.254;10.352;2022-09-06T04:53:57;5.00;;;2.07;;
7047;SDS011;3565;53.254;10.352;2022-09-06T04:56:26;3.27;;;1.93;;
7047;SDS011;3565;53.254;10.352;2022-09-06T04:58:55;3.03;;;1.90;;
7047;SDS011;3565;53.254;10.352;2022-09-06T05:01:25;3.00;;;1.90;;
7047;SDS011;3565;53.254;10.352;2022-09-06T05:03:54;3.43;;;1.90;;
7047;SDS011;3565;53.254;10.352;2022-09-06T05:06:24;5.57;;;1.97;;
7047;SDS011;3565;53.254;10.352;2022-09-06T05:08:53;4.23;;;1.90;;
7047;SDS011;3565;53.254;10.352;2022-09-06T05:11:24;2.80;;;1.97;;
7047;SDS011;3565;53.254;10.352;2022-09-06T05:13:53;4.10;;;1.90;;
7047;SDS011;3565;53.254;10.352;2022-09-06T05:16:23;4.00;;;2.30;;
7047;SDS011;3565;53.254;10.352;2022-09-06T05:18:51;4.57;;;1.90;;
7047;SDS011;3565;53.254;10.352;2022-09-06T05:21:21;4.77;;;2.10;;
7047;SDS011;3565;53.254;10.352;2022-09-06T05:23:51;3.17;;;2.00;;
7047;SDS011;3565;53.254;10.352;2022-09-06T05:26:25;4.03;;;2.20;;
7047;SDS011;3565;53.254;10.352;2022-09-06T05:28:58;2.63;;;1.90;;
7047;SDS011;3565;53.254;10.352;2022-09-06T05:31:28;2.50;;;1.80;;
7047;SDS011;3565;53.254;10.352;2022-09-06T05:33:58;3.33;;;1.97;;
7047;SDS011;3565;53.254;10.352;2022-09-06T05:36:27;3.77;;;2.00;;
7047;SDS011;3565;53.254;10.352;2022-09-06T05:38:57;5.53;;;1.97;;
7047;SDS011;3565;53.254;10.352;2022-09-06T05:41:26;2.63;;;1.93;;
7047;SDS011;3565;53.254;10.352;2022-09-06T05:43:57;4.97;;;2.10;;
7047;SDS011;3565;53.254;10.352;2022-09-06T05:46:26;4.33;;;2.07;;
7047;SDS011;3565;53.254;10.352;2022-09-06T05:49:08;3.63;;;2.07;;
7047;SDS011;3565;53.254;10.352;2022-09-06T05:51:37;2.67;;;1.60;;
7047;SDS011;3565;53.254;10.352;2022-09-06T05:54:05;2.57;;;1.73;;
7047;SDS011;3565;53.254;10.352;2022-09-06T05:56:33;3.47;;;1.90;;
7047;SDS011;3565;53.254;10.352;2022-09-06T05:59:03;4.60;;;1.90;;
7047;SDS011;3565;53.254;10.352;2022-09-06T06:01:31;5.27;;;2.00;;
7047;SDS011;3565;53.254;10.352;2022-09-06T06:04:00;2.03;;;1.83;;
7047;SDS011;3565;53.254;10.352;2022-09-06T06:06:33;2.83;;;1.80;;
7047;SDS011;3565;53.254;10.352;2022-09-06T06:09:02;2.00;;;1.67;;
7047;SDS011;3565;53.254;10.352;2022-09-06T06:11:29;2.10;;;1.90;;
7047;SDS011;3565;53.254;10.352;2022-09-06T06:13:59;3.30;;;1.80;;
7047;SDS011;3565;53.254;10.352;2022-09-06T06:16:27;4.73;;;1.80;;
7047;SDS011;3565;53.254;10.352;2022-09-06T06:18:55;4.17;;;1.90;;
7047;SDS011;3565;53.254;10.352;2022-09-06T06:21:24;5.27;;;1.90;;
7047;SDS011;3565;53.254;10.352;2022-09-06T06:23:54;2.87;;;1.93;;
7047;SDS011;3565;53.254;10.352;2022-09-06T06:26:23;3.93;;;2.10;;
7047;SDS011;3565;53.254;10.352;2022-09-06T06:28:51;4.63;;;1.73;;
7047;SDS011;3565;53.254;10.352;2022-09-06T06:31:20;2.70;;;1.90;;
7047;SDS011;3565;53.254;10.352;2022-09-06T06:33:51;3.57;;;1.77;;
7047;SDS011;3565;53.254;10.352;2022-09-06T06:36:20;3.20;;;1.77;;
7047;SDS011;3565;53.254;10.352;2022-09-06T06:38:49;3.10;;;1.93;;
7047;SDS011;3565;53.254;10.352;2022-09-06T06:41:21;2.70;;;1.80;;
7047;SDS011;3565;53.254;10.352;2022-09-06T06:43:50;3.10;;;1.77;;
7047;SDS011;3565;53.254;10.352;2022-09-06T06:46:19;3.37;;;2.00;;
7047;SDS011;3565;53.254;10.352;2022-09-06T06:48:51;3.23;;;2.00;;
7047;SDS011;3565;53.254;10.352;2022-09-06T06:51:20;3.23;;;2.00;;
7047;SDS011;3565;53.254;10.352;2022-09-06T06:53:51;5.13;;;1.80;;
7047;SDS011;3565;53.254;10.352;2022-09-06T06:56:20;5.70;;;1.90;;
7047;SDS011;3565;53.254;10.352;2022-09-06T06:58:51;2.37;;;1.77;;
7047;SDS011;3565;53.254;10.352;2022-09-06T07:01:20;5.13;;;2.57;;
7047;SDS011;3565;53.254;10.352;2022-09-06T07:03:50;4.93;;;1.90;;
7047;SDS011;3565;53.254;10.352;2022-09-06T07:06:18;3.23;;;1.93;;
7047;SDS011;3565;53.254;10.352;2022-09-06T07:08:46;2.33;;;1.93;;
7047;SDS011;3565;53.254;10.352;2022-09-06T07:11:17;4.83;;;2.00;;
7047;SDS011;3565;53.254;10.352;2022-09-06T07:13:45;8.03;;;2.33;;
7047;SDS011;3565;53.254;10.352;2022-09-06T07:16:14;4.23;;;1.90;;
7047;SDS011;3565;53.254;10.352;2022-09-06T07:18:42;5.37;;;1.90;;
7047;SDS011;3565;53.254;10.352;2022-09-06T07:21:12;3.53;;;1.97;;
7047;SDS011;3565;53.254;10.352;2022-09-06T07:23:40;5.87;;;1.80;;
7047;SDS011;3565;53.254;10.352;2022-09-06T07:26:13;3.97;;;1.90;;
7047;SDS011;3565;53.254;10.352;2022-09-06T07:28:42;5.17;;;1.80;;
7047;SDS011;3565;53.254;10.352;2022-09-06T07:31:12;3.70;;;1.90;;
7047;SDS011;3565;53.254;10.352;2022-09-06T07:33:40;4.00;;;1.97;;
7047;SDS011;3565;53.254;10.352;2022-09-06T07:36:09;4.27;;;1.80;;
7047;SDS011;3565;53.254;10.352;2022-09-06T07:38:37;3.57;;;1.70;;
7047;SDS011;3565;53.254;10.352;2022-09-06T07:41:09;3.00;;;1.77;;
7047;SDS011;3565;53.254;10.352;2022-09-06T07:43:37;3.03;;;2.00;;
7047;SDS011;3565;53.254;10.352;2022-09-06T07:46:07;4.17;;;1.90;;
7047;SDS011;3565;53.254;10.352;2022-09-06T07:48:36;4.67;;;2.10;;
7047;SDS011;3565;53.254;10.352;2022-09-06T07:51:08;3.20;;;1.90;;
7047;SDS011;3565;53.254;10.352;2022-09-06T07:53:38;3.47;;;2.23;;
7047;SDS011;3565;53.254;10.352;2022-09-06T07:56:07;3.23;;;2.07;;
7047;SDS011;3565;53.254;10.352;2022-09-06T07:58:36;2.57;;;1.97;;
7047;SDS011;3565;53.254;10.352;2022-09-06T08:01:18;6.43;;;2.00;;
7047;SDS011;3565;53.254;10.352;2022-09-06T08:03:46;4.17;;;2.10;;
7047;SDS011;3565;53.254;10.352;2022-09-06T08:06:14;2.70;;;2.00;;
7047;SDS011;3565;53.254;10.352;2022-09-06T08:08:43;3.70;;;2.20;;
7047;SDS011;3565;53.254;10.352;2022-09-06T08:11:11;3.50;;;2.10;;
7047;SDS011;3565;53.254;10.352;2022-09-06T08:13:39;2.53;;;2.33;;
7047;SDS011;3565;53.254;10.352;2022-09-06T08:16:09;4.13;;;2.00;;
7047;SDS011;3565;53.254;10.352;2022-09-06T08:18:37;2.70;;;2.07;;
7047;SDS011;3565;53.254;10.352;2022-09-06T08:21:06;4.57;;;2.37;;
7047;SDS011;3565;53.254;10.352;2022-09-06T08:23:34;3.63;;;1.90;;
7047;SDS011;3565;53.254;10.352;2022-09-06T08:26:03;2.67;;;2.00;;
7047;SDS011;3565;53.254;10.352;2022-09-06T08:28:34;4.03;;;1.90;;
7047;SDS011;3565;53.254;10.352;2022-09-06T08:31:06;4.53;;;2.07;;
7047;SDS011;3565;53.254;10.352;2022-09-06T08:33:35;3.93;;;2.03;;
7047;SDS011;3565;53.254;10.352;2022-09-06T08:36:04;4.23;;;2.03;;
7047;SDS011;3565;53.254;10.352;2022-09-06T08:38:32;4.60;;;2.33;;
7047;SDS011;3565;53.254;10.352;2022-09-06T08:41:07;3.70;;;1.97;;
7047;SDS011;3565;53.254;10.352;2022-09-06T08:43:35;3.30;;;2.10;;
7047;SDS011;3565;53.254;10.352;2022-09-06T08:46:05;2.40;;;2.20;;
7047;SDS011;3565;53.254;10.352;2022-09-06T08:48:36;3.97;;;2.33;;
7047;SDS011;3565;53.254;10.352;2022-09-06T08:54:04;3.47;;;2.20;;
7047;SDS011;3565;53.254;10.352;2022-09-06T08:56:33;5.10;;;2.23;;
7047;SDS011;3565;53.254;10.352;2022-09-06T08:59:06;3.00;;;1.80;;
7047;SDS011;3565;53.254;10.352;2022-09-06T09:01:36;3.37;;;2.37;;
7047;SDS011;3565;53.254;10.352;2022-09-06T09:04:05;2.10;;;1.90;;
7047;SDS011;3565;53.254;10.352;2022-09-06T09:06:35;2.80;;;2.20;;
7047;SDS011;3565;53.254;10.352;2022-09-06T09:09:05;3.87;;;2.00;;
7047;SDS011;3565;53.254;10.352;2022-09-06T09:11:34;5.43;;;2.30;;
7047;SDS011;3565;53.254;10.352;2022-09-06T09:14:04;4.80;;;2.30;;
7047;SDS011;3565;53.254;10.352;2022-09-06T09:16:33;3.87;;;2.40;;
7047;SDS011;3565;53.254;10.352;2022-09-06T09:19:02;3.57;;;2.37;;
7047;SDS011;3565;53.254;10.352;2022-09-06T09:21:31;3.23;;;2.20;;
7047;SDS011;3565;53.254;10.352;2022-09-06T09:24:02;3.90;;;2.20;;
7047;SDS011;3565;53.254;10.352;2022-09-06T09:26:31;2.70;;;2.17;;
7047;SDS011;3565;53.254;10.352;2022-09-06T09:29:04;4.70;;;2.37;;
7047;SDS011;3565;53.254;10.352;2022-09-06T09:31:33;4.43;;;2.27;;
7047;SDS011;3565;53.254;10.352;2022-09-06T09:34:02;3.40;;;2.60;;
7047;SDS011;3565;53.254;10.352;2022-09-06T09:36:31;4.70;;;2.20;;
7047;SDS011;3565;53.254;10.352;2022-09-06T09:39:00;3.57;;;2.40;;
7047;SDS011;3565;53.254;10.352;2022-09-06T09:41:30;6.77;;;2.43;;
7047;SDS011;3565;53.254;10.352;2022-09-06T09:44:00;3.80;;;2.37;;
7047;SDS011;3565;53.254;10.352;2022-09-06T09:46:30;3.10;;;2.23;;
7047;SDS011;3565;53.254;10.352;2022-09-06T09:49:01;4.23;;;2.43;;
7047;SDS011;3565;53.254;10.352;2022-09-06T09:51:29;3.73;;;2.60;;
7047;SDS011;3565;53.254;10.352;2022-09-06T09:54:06;3.93;;;2.33;;
7047;SDS011;3565;53.254;10.352;2022-09-06T09:56:41;8.10;;;2.50;;
7047;SDS011;3565;53.254;10.352;2022-09-06T09:59:21;3.83;;;2.50;;
7047;SDS011;3565;53.254;10.352;2022-09-06T10:01:52;6.20;;;2.47;;
7047;SDS011;3565;53.254;10.352;2022-09-06T10:04:23;5.70;;;2.93;;
7047;SDS011;3565;53.254;10.352;2022-09-06T10:06:52;4.57;;;2.33;;
7047;SDS011;3565;53.254;10.352;2022-09-06T10:09:29;4.70;;;2.43;;
7047;SDS011;3565;53.254;10.352;2022-09-06T10:11:56;4.10;;;2.70;;
7047;SDS011;3565;53.254;10.352;2022-09-06T10:14:27;4.23;;;2.83;;
7047;SDS011;3565;53.254;10.352;2022-09-06T10:16:58;3.70;;;2.90;;
7047;SDS011;3565;53.254;10.352;2022-09-06T10:19:33;3.97;;;2.70;;
7047;SDS011;3565;53.254;10.352;2022-09-06T10:22:26;6.90;;;2.70;;
7047;SDS011;3565;53.254;10.352;2022-09-06T10:25:00;3.27;;;2.80;;
7047;SDS011;3565;53.254;10.352;2022-09-06T10:27:36;6.50;;;2.73;;
7047;SDS011;3565;53.254;10.352;2022-09-06T10:30:06;5.40;;;3.00;;
7047;SDS011;3565;53.254;10.352;2022-09-06T10:32:40;3.50;;;3.00;;
7047;SDS011;3565;53.254;10.352;2022-09-06T10:35:09;4.87;;;2.87;;
7047;SDS011;3565;53.254;10.352;2022-09-06T10:37:59;3.50;;;2.77;;
7047;SDS011;3565;53.254;10.352;2022-09-06T10:40:29;3.20;;;2.50;;
7047;SDS011;3565;53.254;10.352;2022-09-06T10:43:00;5.47;;;2.47;;
7047;SDS011;3565;53.254;10.352;2022-09-06T10:45:37;4.60;;;2.83;;
7047;SDS011;3565;53.254;10.352;2022-09-06T10:48:22;6.63;;;2.83;;
7047;SDS011;3565;53.254;10.352;2022-09-06T10:50:54;7.57;;;3.20;;
7047;SDS011;3565;53.254;10.352;2022-09-06T10:53:29;5.57;;;3.03;;
7047;SDS011;3565;53.254;10.352;2022-09-06T10:56:03;4.60;;;3.23;;
7047;SDS011;3565;53.254;10.352;2022-09-06T10:58:33;5.17;;;3.50;;
7047;SDS011;3565;53.254;10.352;2022-09-06T11:01:06;3.60;;;3.30;;
7047;SDS011;3565;53.254;10.352;2022-09-06T11:03:36;4.40;;;3.23;;
7047;SDS011;3565;53.254;10.352;2022-09-06T11:06:09;4.23;;;3.50;;
7047;SDS011;3565;53.254;10.352;2022-09-06T11:08:41;3.63;;;3.27;;
7047;SDS011;3565;53.254;10.352;2022-09-06T11:11:10;5.63;;;3.57;;
7047;SDS011;3565;53.254;10.352;2022-09-06T11:13:43;5.07;;;3.47;;
7047;SDS011;3565;53.254;10.352;2022-09-06T11:16:12;5.00;;;3.70;;
7047;SDS011;3565;53.254;10.352;2022-09-06T11:18:41;4.57;;;3.60;;
7047;SDS011;3565;53.254;10.352;2022-09-06T11:23:59;4.17;;;3.77;;
7047;SDS011;3565;53.254;10.352;2022-09-06T11:26:33;5.60;;;4.00;;
7047;SDS011;3565;53.254;10.352;2022-09-06T11:29:04;6.47;;;3.80;;
7047;SDS011;3565;53.254;10.352;2022-09-06T11:31:47;4.60;;;3.83;;
7047;SDS011;3565;53.254;10.352;2022-09-06T11:34:19;3.83;;;3.53;;
7047;SDS011;3565;53.254;10.352;2022-09-06T11:36:48;6.33;;;3.50;;
7047;SDS011;3565;53.254;10.352;2022-09-06T11:39:25;5.27;;;3.90;;
7047;SDS011;3565;53.254;10.352;2022-09-06T11:41:53;4.00;;;3.50;;
7047;SDS011;3565;53.254;10.352;2022-09-06T11:47:09;4.27;;;3.60;;
7047;SDS011;3565;53.254;10.352;2022-09-06T11:49:39;6.10;;;3.67;;
7047;SDS011;3565;53.254;10.352;2022-09-06T11:54:55;6.10;;;3.80;;
7047;SDS011;3565;53.254;10.352;2022-09-06T11:57:25;4.67;;;3.70;;
7047;SDS011;3565;53.254;10.352;2022-09-06T11:59:56;4.70;;;3.43;;
7047;SDS011;3565;53.254;10.352;2022-09-06T12:02:34;4.77;;;3.70;;
7047;SDS011;3565;53.254;10.352;2022-09-06T12:13:57;4.53;;;3.90;;
7047;SDS011;3565;53.254;10.352;2022-09-06T12:19:41;4.87;;;3.70;;
7047;SDS011;3565;53.254;10.352;2022-09-06T12:28:22;7.90;;;4.20;;
7047;SDS011;3565;53.254;10.352;2022-09-06T12:30:51;5.13;;;4.27;;
7047;SDS011;3565;53.254;10.352;2022-09-06T12:33:21;3.67;;;3.37;;
7047;SDS011;3565;53.254;10.352;2022-09-06T12:35:50;4.43;;;3.73;;
7047;SDS011;3565;53.254;10.352;2022-09-06T12:38:22;4.93;;;3.60;;
7047;SDS011;3565;53.254;10.352;2022-09-06T12:40:52;11.20;;;3.70;;
7047;SDS011;3565;53.254;10.352;2022-09-06T12:43:22;4.33;;;3.50;;
7047;SDS011;3565;53.254;10.352;2022-09-06T12:45:51;7.20;;;4.20;;
7047;SDS011;3565;53.254;10.352;2022-09-06T12:48:25;5.90;;;4.00;;
7047;SDS011;3565;53.254;10.352;2022-09-06T12:51:02;4.60;;;3.60;;
7047;SDS011;3565;53.254;10.352;2022-09-06T12:53:32;5.83;;;3.63;;
7047;SDS011;3565;53.254;10.352;2022-09-06T12:56:05;6.83;;;3.50;;
7047;SDS011;3565;53.254;10.352;2022-09-06T12:58:33;6.03;;;3.67;;
7047;SDS011;3565;53.254;10.352;2022-09-06T13:01:04;4.57;;;3.90;;
7047;SDS011;3565;53.254;10.352;2022-09-06T13:03:38;5.93;;;3.60;;
7047;SDS011;3565;53.254;10.352;2022-09-06T13:06:07;6.70;;;4.03;;
7047;SDS011;3565;53.254;10.352;2022-09-06T13:08:38;4.57;;;3.30;;
7047;SDS011;3565;53.254;10.352;2022-09-06T13:11:08;20.60;;;5.17;;
7047;SDS011;3565;53.254;10.352;2022-09-06T13:13:43;9.57;;;4.17;;
7047;SDS011;3565;53.254;10.352;2022-09-06T13:16:09;3.93;;;3.40;;
7047;SDS011;3565;53.254;10.352;2022-09-06T13:18:37;12.13;;;4.10;;
7047;SDS011;3565;53.254;10.352;2022-09-06T13:21:06;9.20;;;3.90;;
7047;SDS011;3565;53.254;10.352;2022-09-06T13:23:40;9.63;;;3.97;;
7047;SDS011;3565;53.254;10.352;2022-09-06T13:26:09;12.87;;;3.90;;
7047;SDS011;3565;53.254;10.352;2022-09-06T13:28:38;8.73;;;4.60;;
7047;SDS011;3565;53.254;10.352;2022-09-06T13:31:07;5.53;;;3.53;;
7047;SDS011;3565;53.254;10.352;2022-09-06T13:33:36;8.00;;;4.00;;
7047;SDS011;3565;53.254;10.352;2022-09-06T13:36:06;11.10;;;4.60;;
7047;SDS011;3565;53.254;10.352;2022-09-06T13:38:38;18.63;;;5.23;;
7047;SDS011;3565;53.254;10.352;2022-09-06T13:41:30;6.77;;;4.23;;
7047;SDS011;3565;53.254;10.352;2022-09-06T13:43:40;7.53;;;4.83;;
7047;SDS011;3565;53.254;10.352;2022-09-06T13:46:09;12.57;;;4.90;;
7047;SDS011;3565;53.254;10.352;2022-09-06T13:48:38;8.17;;;4.70;;
7047;SDS011;3565;53.254;10.352;2022-09-06T13:51:07;7.20;;;4.27;;
7047;SDS011;3565;53.254;10.352;2022-09-06T13:53:36;7.87;;;4.00;;
7047;SDS011;3565;53.254;10.352;2022-09-06T13:56:04;7.60;;;4.30;;
7047;SDS011;3565;53.254;10.352;2022-09-06T13:58:33;5.47;;;4.00;;
7047;SDS011;3565;53.254;10.352;2022-09-06T14:01:03;4.27;;;3.83;;
7047;SDS011;3565;53.254;10.352;2022-09-06T14:03:34;5.90;;;4.30;;
7047;SDS011;3565;53.254;10.352;2022-09-06T14:06:03;4.20;;;3.80;;
7047;SDS011;3565;53.254;10.352;2022-09-06T14:08:31;6.40;;;4.40;;
7047;SDS011;3565;53.254;10.352;2022-09-06T14:10:59;8.00;;;4.00;;
7047;SDS011;3565;53.254;10.352;2022-09-06T14:13:28;4.50;;;4.10;;
7047;SDS011;3565;53.254;10.352;2022-09-06T14:15:56;5.60;;;4.27;;
7047;SDS011;3565;53.254;10.352;2022-09-06T14:18:24;5.40;;;4.20;;
7047;SDS011;3565;53.254;10.352;2022-09-06T14:20:54;5.93;;;4.37;;
7047;SDS011;3565;53.254;10.352;2022-09-06T14:23:23;6.23;;;4.83;;
7047;SDS011;3565;53.254;10.352;2022-09-06T14:25:54;6.83;;;4.23;;
7047;SDS011;3565;53.254;10.352;2022-09-06T14:28:24;4.97;;;4.30;;
7047;SDS011;3565;53.254;10.352;2022-09-06T14:30:53;9.07;;;5.00;;
7047;SDS011;3565;53.254;10.352;2022-09-06T14:33:21;8.37;;;4.50;;
7047;SDS011;3565;53.254;10.352;2022-09-06T14:35:50;6.63;;;4.63;;
7047;SDS011;3565;53.254;10.352;2022-09-06T14:38:18;7.07;;;4.90;;
7047;SDS011;3565;53.254;10.352;2022-09-06T14:40:48;4.63;;;4.10;;
7047;SDS011;3565;53.254;10.352;2022-09-06T14:43:16;6.07;;;4.73;;
7047;SDS011;3565;53.254;10.352;2022-09-06T14:45:44;4.50;;;4.10;;
7047;SDS011;3565;53.254;10.352;2022-09-06T14:48:13;5.43;;;4.60;;
7047;SDS011;3565;53.254;10.352;2022-09-06T14:50:45;9.00;;;5.27;;
7047;SDS011;3565;53.254;10.352;2022-09-06T14:53:13;6.77;;;4.63;;
7047;SDS011;3565;53.254;10.352;2022-09-06T14:55:43;8.27;;;5.00;;
7047;SDS011;3565;53.254;10.352;2022-09-06T14:58:11;4.67;;;4.23;;
7047;SDS011;3565;53.254;10.352;2022-09-06T15:00:40;5.80;;;5.20;;
7047;SDS011;3565;53.254;10.352;2022-09-06T15:03:11;6.07;;;4.80;;
7047;SDS011;3565;53.254;10.352;2022-09-06T15:05:40;7.83;;;5.00;;
7047;SDS011;3565;53.254;10.352;2022-09-06T15:08:08;7.37;;;5.10;;
7047;SDS011;3565;53.254;10.352;2022-09-06T15:10:38;5.73;;;5.13;;
7047;SDS011;3565;53.254;10.352;2022-09-06T15:13:08;6.23;;;4.90;;
7047;SDS011;3565;53.254;10.352;2022-09-06T15:15:37;8.83;;;5.23;;
7047;SDS011;3565;53.254;10.352;2022-09-06T15:18:06;6.40;;;5.10;;
7047;SDS011;3565;53.254;10.352;2022-09-06T15:20:34;6.67;;;5.23;;
7047;SDS011;3565;53.254;10.352;2022-09-06T15:23:03;7.93;;;5.10;;
7047;SDS011;3565;53.254;10.352;2022-09-06T15:25:33;6.33;;;5.00;;
7047;SDS011;3565;53.254;10.352;2022-09-06T15:28:01;9.80;;;5.50;;
7047;SDS011;3565;53.254;10.352;2022-09-06T15:30:31;7.10;;;5.63;;
7047;SDS011;3565;53.254;10.352;2022-09-06T15:33:01;5.47;;;4.97;;
7047;SDS011;3565;53.254;10.352;2022-09-06T15:35:28;9.77;;;5.73;;
7047;SDS011;3565;53.254;10.352;2022-09-06T15:37:59;7.40;;;5.07;;
7047;SDS011;3565;53.254;10.352;2022-09-06T15:40:27;6.40;;;5.03;;
7047;SDS011;3565;53.254;10.352;2022-09-06T15:42:56;6.07;;;5.30;;
7047;SDS011;3565;53.254;10.352;2022-09-06T15:45:24;6.30;;;5.70;;
7047;SDS011;3565;53.254;10.352;2022-09-06T15:47:54;7.17;;;5.47;;
7047;SDS011;3565;53.254;10.352;2022-09-06T15:50:23;7.80;;;5.17;;
7047;SDS011;3565;53.254;10.352;2022-09-06T15:52:53;8.57;;;5.10;;
7047;SDS011;3565;53.254;10.352;2022-09-06T15:55:21;8.03;;;5.70;;